createdAt,value
2018-08-31T00:00:15.506Z,3.10
2018-08-31T00:02:42.032Z,3.00
2018-08-31T00:05:08.476Z,3.90
2018-08-31T00:07:34.950Z,3.20
2018-08-31T00:10:01.446Z,2.83
2018-08-31T00:12:27.918Z,2.83
2018-08-31T00:14:54.398Z,3.50
2018-08-31T00:17:20.862Z,3.30
2018-08-31T00:19:47.348Z,3.67
2018-08-31T00:22:13.838Z,3.43
2018-08-31T00:24:40.423Z,3.47
2018-08-31T00:27:06.920Z,2.97
2018-08-31T00:29:33.386Z,3.60
2018-08-31T00:32:00.520Z,2.80
2018-08-31T00:34:27.032Z,3.57
2018-08-31T00:36:53.479Z,3.40
2018-08-31T00:39:20.719Z,2.77
2018-08-31T00:41:47.305Z,3.07
2018-08-31T00:44:13.858Z,3.10
2018-08-31T00:46:40.384Z,2.70
2018-08-31T00:49:06.965Z,3.07
2018-08-31T00:51:33.455Z,2.90
2018-08-31T00:53:59.966Z,2.77
2018-08-31T00:56:26.420Z,3.20
2018-08-31T00:58:52.877Z,3.53
2018-08-31T01:01:19.365Z,3.10
2018-08-31T01:03:45.862Z,2.93
2018-08-31T01:06:12.330Z,3.67
2018-08-31T01:08:38.815Z,3.17
2018-08-31T01:11:05.254Z,3.30
2018-08-31T01:13:32.078Z,3.00
2018-08-31T01:15:58.528Z,3.07
2018-08-31T01:18:24.991Z,3.10
2018-08-31T01:20:51.467Z,3.17
2018-08-31T01:23:17.901Z,2.93
2018-08-31T01:25:44.971Z,3.60
2018-08-31T01:28:11.481Z,3.10
2018-08-31T01:30:37.985Z,3.30
2018-08-31T01:33:04.437Z,3.03
2018-08-31T01:35:30.902Z,2.83
2018-08-31T01:37:57.351Z,2.87
2018-08-31T01:40:23.809Z,3.17
2018-08-31T01:42:50.279Z,2.40
2018-08-31T01:45:16.791Z,2.73
2018-08-31T01:47:43.275Z,2.97
2018-08-31T01:50:09.887Z,3.23
2018-08-31T01:52:36.397Z,3.60
2018-08-31T01:55:02.909Z,2.67
2018-08-31T01:57:29.922Z,2.77
2018-08-31T01:59:56.414Z,3.53
2018-08-31T02:02:23.511Z,3.00
2018-08-31T02:04:50.062Z,3.00
2018-08-31T02:07:17.028Z,2.77
2018-08-31T02:09:43.481Z,3.30
2018-08-31T02:12:09.963Z,2.90
2018-08-31T02:14:36.399Z,3.40
2018-08-31T02:17:02.857Z,2.77
2018-08-31T02:19:29.518Z,2.70
2018-08-31T02:21:55.999Z,3.13
2018-08-31T02:24:22.545Z,2.83
2018-08-31T02:26:49.028Z,3.23
2018-08-31T02:29:15.609Z,3.43
2018-08-31T02:31:42.042Z,3.37
2018-08-31T02:34:08.537Z,2.80
2018-08-31T02:36:35.031Z,2.77
2018-08-31T02:39:02.252Z,3.13
2018-08-31T02:41:28.633Z,3.47
2018-08-31T02:43:55.071Z,2.73
2018-08-31T02:46:22.340Z,2.93
2018-08-31T02:48:49.888Z,3.87
2018-08-31T02:51:16.363Z,3.30
2018-08-31T02:53:43.163Z,3.10
2018-08-31T02:56:10.129Z,3.67
2018-08-31T02:58:36.617Z,3.27
2018-08-31T03:01:03.121Z,3.33
2018-08-31T03:03:29.668Z,3.80
2018-08-31T03:05:56.239Z,3.70
2018-08-31T03:08:22.731Z,3.37
2018-08-31T03:10:49.415Z,3.13
2018-08-31T03:13:15.897Z,3.30
2018-08-31T03:15:42.379Z,2.83
2018-08-31T03:18:08.859Z,3.07
2018-08-31T03:20:35.343Z,3.00
2018-08-31T03:23:01.838Z,3.30
2018-08-31T03:25:28.309Z,3.20
2018-08-31T03:27:55.006Z,3.27
2018-08-31T03:30:21.457Z,3.67
2018-08-31T03:32:47.988Z,3.17
2018-08-31T03:35:14.432Z,3.00
2018-08-31T03:37:40.914Z,2.97
2018-08-31T03:40:07.353Z,3.00
2018-08-31T03:42:33.810Z,3.17
2018-08-31T03:45:00.314Z,2.87
2018-08-31T03:47:27.046Z,3.87
2018-08-31T03:50:03.582Z,4.10
2018-08-31T03:52:30.079Z,3.23
2018-08-31T03:54:56.576Z,3.57
2018-08-31T03:57:23.124Z,3.80
2018-08-31T03:59:49.658Z,3.30
2018-08-31T04:02:16.152Z,3.47
2018-08-31T04:04:42.680Z,3.13
2018-08-31T04:07:09.222Z,3.20
2018-08-31T04:09:35.690Z,3.07
2018-08-31T04:12:02.177Z,3.50
2018-08-31T04:14:28.628Z,3.10
2018-08-31T04:16:55.128Z,3.20
2018-08-31T04:19:22.212Z,3.10
2018-08-31T04:21:48.679Z,3.10
2018-08-31T04:24:16.150Z,3.07
2018-08-31T04:26:42.996Z,2.80
2018-08-31T04:29:09.980Z,3.40
2018-08-31T04:31:36.674Z,3.23
2018-08-31T04:34:03.282Z,3.90
2018-08-31T04:36:29.800Z,3.20
2018-08-31T04:38:56.296Z,3.13
2018-08-31T04:41:22.806Z,2.97
2018-08-31T04:43:49.292Z,3.13
2018-08-31T04:46:15.778Z,3.63
2018-08-31T04:48:42.262Z,2.73
2018-08-31T04:51:08.728Z,3.30
2018-08-31T04:53:35.210Z,3.37
2018-08-31T04:56:01.773Z,2.90
2018-08-31T04:58:28.228Z,3.40
2018-08-31T05:00:54.705Z,2.97
2018-08-31T05:03:21.174Z,3.13
2018-08-31T05:05:47.630Z,3.07
2018-08-31T05:08:14.170Z,3.70
2018-08-31T05:10:40.677Z,3.40
2018-08-31T05:13:07.109Z,3.57
2018-08-31T05:15:33.599Z,3.40
2018-08-31T05:18:00.059Z,3.47
2018-08-31T05:20:26.547Z,3.93
2018-08-31T05:22:53.046Z,2.90
2018-08-31T05:25:19.496Z,3.40
2018-08-31T05:27:45.961Z,3.70
2018-08-31T05:30:12.443Z,3.87
2018-08-31T05:32:38.945Z,3.80
2018-08-31T05:35:06.185Z,3.30
2018-08-31T05:37:33.277Z,3.07
2018-08-31T05:39:59.742Z,2.53
2018-08-31T05:42:26.231Z,3.40
2018-08-31T05:44:52.731Z,2.87
2018-08-31T05:47:19.213Z,3.10
2018-08-31T05:49:45.699Z,2.50
2018-08-31T05:52:12.174Z,3.10
2018-08-31T05:54:38.651Z,2.73
2018-08-31T05:57:05.169Z,3.03
2018-08-31T05:59:31.693Z,3.23
2018-08-31T06:01:58.796Z,3.37
2018-08-31T06:04:25.337Z,3.30
2018-08-31T06:06:51.813Z,3.53
2018-08-31T06:09:18.273Z,2.53
2018-08-31T06:11:44.774Z,3.33
2018-08-31T06:14:11.267Z,3.10
2018-08-31T06:16:37.720Z,2.67
2018-08-31T06:21:43.544Z,3.10
2018-08-31T06:24:10.043Z,2.90
2018-08-31T06:26:36.518Z,3.23
2018-08-31T06:29:03.719Z,3.47
2018-08-31T06:31:30.212Z,3.60
2018-08-31T06:33:56.731Z,3.40
2018-08-31T06:36:23.210Z,3.37
2018-08-31T06:38:49.719Z,2.53
2018-08-31T06:41:16.216Z,3.00
2018-08-31T06:43:42.807Z,3.43
2018-08-31T06:46:09.433Z,2.70
2018-08-31T06:48:35.939Z,3.80
2018-08-31T06:51:02.431Z,3.13
2018-08-31T06:53:28.907Z,2.87
2018-08-31T06:55:55.405Z,3.13
2018-08-31T06:58:21.892Z,3.20
2018-08-31T07:00:48.734Z,3.77
2018-08-31T07:03:15.739Z,3.03
2018-08-31T07:05:42.231Z,3.37
2018-08-31T07:08:08.668Z,3.07
2018-08-31T07:10:35.104Z,3.07
2018-08-31T07:13:01.581Z,3.43
2018-08-31T07:15:28.074Z,3.63
2018-08-31T07:17:54.526Z,3.13
2018-08-31T07:20:21.043Z,3.30
2018-08-31T07:22:47.524Z,3.50
2018-08-31T07:25:13.993Z,3.60
2018-08-31T07:27:40.438Z,3.10
2018-08-31T07:30:06.936Z,3.73
2018-08-31T07:32:33.475Z,4.03
2018-08-31T07:34:59.935Z,3.70
2018-08-31T07:37:26.439Z,3.40
2018-08-31T07:39:52.904Z,2.77
2018-08-31T07:42:19.425Z,2.70
2018-08-31T07:44:45.968Z,3.20
2018-08-31T07:47:12.442Z,2.90
2018-08-31T07:49:39.004Z,2.80
2018-08-31T07:52:05.498Z,3.30
2018-08-31T07:54:32.001Z,3.77
2018-08-31T07:56:58.483Z,3.30
2018-08-31T07:59:25.500Z,3.63
2018-08-31T08:01:51.989Z,2.93
2018-08-31T08:04:18.478Z,2.93
2018-08-31T08:06:44.995Z,3.17
2018-08-31T08:09:11.500Z,3.47
2018-08-31T08:11:38.013Z,3.37
2018-08-31T08:14:04.495Z,3.37
2018-08-31T08:16:31.182Z,2.77
2018-08-31T08:18:57.671Z,3.70
2018-08-31T08:21:24.153Z,2.90
2018-08-31T08:23:50.633Z,3.30
2018-08-31T08:26:17.101Z,3.17
2018-08-31T08:28:43.629Z,3.43
2018-08-31T08:31:10.155Z,2.83
2018-08-31T08:33:36.675Z,3.47
2018-08-31T08:36:03.314Z,3.50
2018-08-31T08:38:29.813Z,3.33
2018-08-31T08:40:56.345Z,3.27
2018-08-31T08:43:22.868Z,3.00
2018-08-31T08:45:49.363Z,3.07
2018-08-31T08:48:15.902Z,2.70
2018-08-31T08:50:42.381Z,2.93
2018-08-31T08:53:08.886Z,2.60
2018-08-31T08:55:35.359Z,3.50
2018-08-31T08:58:01.824Z,2.90
2018-08-31T09:00:28.343Z,3.13
2018-08-31T09:02:55.403Z,3.00
2018-08-31T09:05:21.900Z,2.63
2018-08-31T09:07:48.418Z,2.67
2018-08-31T09:10:14.896Z,3.07
2018-08-31T09:12:41.372Z,3.23
2018-08-31T09:15:07.860Z,3.37
2018-08-31T09:17:34.358Z,3.30
2018-08-31T09:20:04.691Z,3.20
2018-08-31T09:22:31.204Z,2.73
2018-08-31T09:24:57.806Z,2.77
2018-08-31T09:27:28.995Z,3.33
2018-08-31T09:29:55.515Z,3.20
2018-08-31T09:32:30.523Z,3.00
2018-08-31T09:34:57.024Z,3.13
2018-08-31T09:37:23.530Z,3.73
2018-08-31T09:39:50.080Z,3.43
2018-08-31T09:42:17.336Z,2.87
2018-08-31T09:44:43.880Z,3.30
2018-08-31T09:47:10.848Z,2.73
2018-08-31T09:49:37.999Z,2.87
2018-08-31T09:52:04.454Z,2.60
2018-08-31T09:54:30.964Z,2.63
2018-08-31T09:56:57.628Z,3.03
2018-08-31T09:59:24.306Z,2.57
2018-08-31T10:01:50.815Z,2.77
2018-08-31T10:04:17.352Z,2.30
2018-08-31T10:06:43.859Z,2.70
2018-08-31T10:11:56.683Z,3.50
2018-08-31T10:14:23.223Z,2.43
2018-08-31T10:16:50.048Z,2.47
2018-08-31T10:19:16.545Z,2.60
2018-08-31T10:21:43.052Z,2.77
2018-08-31T10:24:09.535Z,3.00
2018-08-31T10:26:36.031Z,3.00
2018-08-31T10:29:02.849Z,2.77
2018-08-31T10:31:29.384Z,2.30
2018-08-31T10:33:55.903Z,2.13
2018-08-31T10:36:22.447Z,2.90
2018-08-31T10:38:48.913Z,2.40
2018-08-31T10:41:15.453Z,2.40
2018-08-31T10:43:41.907Z,2.27
2018-08-31T10:46:08.436Z,2.63
2018-08-31T10:48:34.946Z,2.63
2018-08-31T10:51:01.423Z,2.33
2018-08-31T10:53:27.901Z,2.70
2018-08-31T10:55:54.370Z,2.43
2018-08-31T10:58:20.881Z,2.20
2018-08-31T11:00:52.100Z,2.10
2018-08-31T11:03:19.069Z,2.47
2018-08-31T11:05:45.532Z,2.50
2018-08-31T11:08:12.047Z,2.50
2018-08-31T11:10:38.514Z,2.40
2018-08-31T11:13:05.058Z,2.50
2018-08-31T11:15:31.506Z,2.13
2018-08-31T11:17:58.522Z,2.63
2018-08-31T11:20:25.709Z,2.30
2018-08-31T11:22:52.607Z,2.83
2018-08-31T11:25:19.191Z,2.37
2018-08-31T11:27:45.750Z,2.87
2018-08-31T11:30:12.647Z,2.90
2018-08-31T11:32:39.389Z,2.63
2018-08-31T11:35:06.077Z,2.60
2018-08-31T11:37:32.811Z,3.17
2018-08-31T11:39:59.415Z,3.30
2018-08-31T11:42:26.101Z,2.70
2018-08-31T11:44:52.611Z,3.00
2018-08-31T11:47:19.251Z,2.67
2018-08-31T11:49:46.560Z,2.93
2018-08-31T11:52:13.053Z,2.53
2018-08-31T11:54:39.543Z,3.10
2018-08-31T11:57:06.066Z,3.20
2018-08-31T11:59:32.511Z,3.40
2018-08-31T12:01:59.040Z,2.43
2018-08-31T12:04:25.508Z,2.70
2018-08-31T12:06:52.045Z,2.90
2018-08-31T12:09:18.529Z,2.97
2018-08-31T12:11:44.994Z,3.30
2018-08-31T12:14:11.452Z,4.17
2018-08-31T12:16:37.934Z,3.77
2018-08-31T12:19:07.168Z,3.70
2018-08-31T12:21:33.628Z,3.83
2018-08-31T12:24:00.104Z,3.77
2018-08-31T12:26:26.649Z,3.53
2018-08-31T12:28:53.288Z,3.20
2018-08-31T12:31:19.794Z,3.20
2018-08-31T12:33:46.270Z,3.07
2018-08-31T12:36:12.841Z,3.23
2018-08-31T12:38:39.464Z,3.33
2018-08-31T12:41:05.952Z,3.10
2018-08-31T12:43:32.589Z,2.97
2018-08-31T12:45:59.624Z,2.73
2018-08-31T12:48:26.106Z,2.80
2018-08-31T12:50:52.565Z,2.80
2018-08-31T12:53:19.035Z,2.77
2018-08-31T12:55:45.477Z,3.10
2018-08-31T12:58:12.570Z,3.07
2018-08-31T13:00:39.048Z,2.90
2018-08-31T13:03:05.554Z,2.53
2018-08-31T13:05:32.166Z,2.50
2018-08-31T13:07:59.210Z,2.37
2018-08-31T13:10:25.687Z,2.60
2018-08-31T13:12:52.234Z,2.37
2018-08-31T13:15:18.732Z,2.93
2018-08-31T13:17:45.208Z,2.80
2018-08-31T13:20:11.724Z,2.53
2018-08-31T13:22:38.197Z,2.60
2018-08-31T13:25:05.319Z,2.10
2018-08-31T13:27:31.848Z,2.23
2018-08-31T13:29:58.382Z,2.43
2018-08-31T13:32:24.878Z,2.57
2018-08-31T13:34:51.382Z,2.53
2018-08-31T13:37:17.812Z,1.97
2018-08-31T13:39:44.340Z,2.47
2018-08-31T13:42:10.810Z,2.50
2018-08-31T13:44:37.394Z,2.67
2018-08-31T13:47:03.901Z,2.63
2018-08-31T13:49:30.436Z,4.27
2018-08-31T13:51:56.918Z,2.67
2018-08-31T13:54:23.468Z,2.47
2018-08-31T13:56:49.966Z,2.40
2018-08-31T13:59:17.321Z,2.30
2018-08-31T14:01:43.815Z,2.40
2018-08-31T14:04:10.302Z,2.33
2018-08-31T14:06:36.768Z,2.73
2018-08-31T14:09:06.618Z,2.57
2018-08-31T14:11:33.131Z,2.87
2018-08-31T14:14:00.110Z,2.30
2018-08-31T14:16:26.573Z,2.30
2018-08-31T14:18:53.064Z,2.53
2018-08-31T14:21:19.527Z,2.43
2018-08-31T14:23:45.980Z,2.10
2018-08-31T14:26:12.690Z,2.73
2018-08-31T14:28:39.161Z,3.07
2018-08-31T14:31:05.635Z,2.33
2018-08-31T14:33:32.155Z,2.10
2018-08-31T14:35:58.630Z,2.50
2018-08-31T14:38:25.208Z,2.10
2018-08-31T14:40:51.977Z,2.13
2018-08-31T14:43:18.436Z,2.87
2018-08-31T14:45:44.895Z,2.17
2018-08-31T14:48:11.485Z,2.30
2018-08-31T14:50:37.959Z,2.63
2018-08-31T14:53:05.141Z,2.17
2018-08-31T14:55:31.762Z,2.07
2018-08-31T14:57:58.225Z,2.13
2018-08-31T15:00:24.708Z,2.23
2018-08-31T15:02:51.305Z,2.47
2018-08-31T15:05:17.713Z,2.93
2018-08-31T15:07:44.712Z,2.53
2018-08-31T15:10:13.211Z,2.10
2018-08-31T15:12:40.381Z,2.27
2018-08-31T15:15:06.835Z,2.57
2018-08-31T15:17:33.324Z,2.30
2018-08-31T15:20:05.277Z,2.13
2018-08-31T15:22:31.736Z,2.50
2018-08-31T15:24:58.253Z,2.13
2018-08-31T15:27:24.751Z,2.40
2018-08-31T15:29:51.261Z,2.53
2018-08-31T15:32:17.773Z,2.00
2018-08-31T15:34:44.311Z,2.20
2018-08-31T15:37:11.392Z,2.10
2018-08-31T15:39:37.932Z,2.10
2018-08-31T15:42:04.405Z,2.10
2018-08-31T15:44:30.965Z,2.23
2018-08-31T15:46:57.458Z,2.60
2018-08-31T15:49:23.953Z,2.30
2018-08-31T15:51:50.423Z,2.20
2018-08-31T15:54:16.926Z,2.10
2018-08-31T15:56:43.426Z,2.30
2018-08-31T15:59:09.948Z,2.20
2018-08-31T16:01:36.479Z,2.50
2018-08-31T16:04:03.021Z,2.23
2018-08-31T16:06:29.652Z,2.63
2018-08-31T16:08:56.147Z,2.50
2018-08-31T16:11:23.062Z,1.90
2018-08-31T16:13:50.127Z,2.13
2018-08-31T16:16:17.099Z,2.63
2018-08-31T16:18:43.745Z,2.17
2018-08-31T16:21:10.735Z,1.80
2018-08-31T16:23:37.698Z,2.30
2018-08-31T16:26:04.654Z,2.07
2018-08-31T16:28:31.543Z,2.47
2018-08-31T16:30:58.527Z,2.20
2018-08-31T16:33:24.963Z,2.57
2018-08-31T16:35:51.410Z,2.33
2018-08-31T16:38:17.857Z,2.00
2018-08-31T16:40:44.895Z,2.47
2018-08-31T16:43:12.760Z,3.13
2018-08-31T16:45:39.772Z,2.00
2018-08-31T16:48:06.232Z,2.03
2018-08-31T16:50:32.720Z,2.30
2018-08-31T16:52:59.151Z,2.53
2018-08-31T16:55:25.688Z,2.27
2018-08-31T16:57:53.419Z,2.53
2018-08-31T17:00:19.883Z,3.03
2018-08-31T17:02:46.446Z,2.27
2018-08-31T17:05:12.893Z,2.50
2018-08-31T17:07:39.467Z,2.57
2018-08-31T17:10:05.879Z,2.17
2018-08-31T17:12:32.393Z,2.30
2018-08-31T17:14:58.876Z,2.30
2018-08-31T17:17:25.361Z,2.57
2018-08-31T17:20:03.819Z,2.10
2018-08-31T17:22:30.279Z,2.77
2018-08-31T17:24:56.710Z,2.17
2018-08-31T17:27:28.802Z,2.30
2018-08-31T17:29:55.356Z,2.33
2018-08-31T17:32:27.431Z,2.53
2018-08-31T17:34:59.481Z,2.37
2018-08-31T17:37:35.037Z,2.10
2018-08-31T17:40:01.427Z,2.20
2018-08-31T17:42:27.866Z,2.93
2018-08-31T17:44:54.278Z,2.40
2018-08-31T17:47:20.845Z,2.20
2018-08-31T17:49:47.329Z,2.30
2018-08-31T17:52:13.839Z,2.07
2018-08-31T17:54:40.335Z,2.00
2018-08-31T17:57:06.854Z,2.80
2018-08-31T17:59:34.059Z,2.50
2018-08-31T18:02:00.634Z,2.53
2018-08-31T18:04:27.119Z,2.20
2018-08-31T18:06:53.627Z,2.80
2018-08-31T18:09:20.148Z,2.60
2018-08-31T18:11:46.672Z,2.37
2018-08-31T18:14:13.164Z,1.73
2018-08-31T18:16:39.816Z,2.20
2018-08-31T18:19:06.112Z,2.40
2018-08-31T18:21:32.560Z,1.90
2018-08-31T18:23:58.992Z,1.93
2018-08-31T18:26:25.424Z,2.30
2018-08-31T18:28:51.869Z,3.23
2018-08-31T18:31:18.316Z,2.83
2018-08-31T18:33:44.785Z,2.00
2018-08-31T18:36:11.269Z,2.10
2018-08-31T18:38:37.757Z,1.97
2018-08-31T18:41:04.305Z,2.73
2018-08-31T18:43:30.826Z,2.40
2018-08-31T18:45:57.264Z,2.57
2018-08-31T18:48:23.708Z,2.80
2018-08-31T18:50:50.180Z,2.37
2018-08-31T18:53:16.672Z,2.10
2018-08-31T18:55:43.192Z,1.90
2018-08-31T18:58:09.657Z,2.70
2018-08-31T19:00:36.121Z,2.20
2018-08-31T19:03:02.720Z,2.67
2018-08-31T19:05:29.223Z,2.87
2018-08-31T19:07:55.758Z,2.17
2018-08-31T19:10:22.220Z,2.80
2018-08-31T19:12:48.713Z,1.90
2018-08-31T19:15:15.194Z,1.80
2018-08-31T19:17:41.629Z,2.13
2018-08-31T19:20:08.060Z,2.70
2018-08-31T19:22:34.586Z,2.00
2018-08-31T19:25:01.061Z,1.90
2018-08-31T19:27:27.544Z,2.20
2018-08-31T19:29:54.038Z,2.53
2018-08-31T19:32:20.506Z,2.47
2018-08-31T19:34:46.994Z,2.60
2018-08-31T19:37:13.456Z,2.30
2018-08-31T19:39:39.928Z,1.90
2018-08-31T19:42:06.457Z,2.23
2018-08-31T19:44:32.957Z,2.20
2018-08-31T19:46:59.464Z,2.40
2018-08-31T19:49:26.287Z,2.87
2018-08-31T19:51:52.769Z,3.23
2018-08-31T19:54:19.233Z,2.43
2018-08-31T19:56:45.752Z,2.37
2018-08-31T20:01:53.211Z,2.13
2018-08-31T20:04:19.682Z,2.33
2018-08-31T20:06:46.115Z,2.27
2018-08-31T20:09:13.013Z,2.03
2018-08-31T20:11:39.724Z,2.37
2018-08-31T20:14:06.747Z,2.60
2018-08-31T20:16:33.243Z,2.57
2018-08-31T20:19:00.633Z,2.07
2018-08-31T20:21:27.443Z,2.47
2018-08-31T20:23:53.940Z,2.10
2018-08-31T20:26:20.388Z,2.13
2018-08-31T20:28:46.780Z,2.17
2018-08-31T20:31:13.212Z,2.10
2018-08-31T20:33:39.641Z,2.90
2018-08-31T20:36:06.084Z,2.20
2018-08-31T20:38:32.578Z,2.10
2018-08-31T20:40:59.288Z,2.13
2018-08-31T20:43:25.749Z,2.40
2018-08-31T20:45:52.274Z,2.17
2018-08-31T20:48:19.253Z,2.40
2018-08-31T20:50:45.684Z,2.17
2018-08-31T20:53:12.133Z,2.20
2018-08-31T20:55:38.855Z,2.17
2018-08-31T20:58:05.374Z,2.73
2018-08-31T21:00:32.500Z,2.00
2018-08-31T21:02:58.961Z,2.20
2018-08-31T21:05:25.404Z,2.57
2018-08-31T21:07:52.023Z,1.83
2018-08-31T21:10:18.497Z,1.90
2018-08-31T21:12:44.931Z,2.00
2018-08-31T21:15:11.473Z,1.80
2018-08-31T21:17:37.949Z,2.40
2018-08-31T21:20:04.558Z,2.17
2018-08-31T21:22:31.017Z,2.13
2018-08-31T21:24:57.450Z,2.13
2018-08-31T21:27:23.876Z,2.13
2018-08-31T21:29:50.296Z,2.27
2018-08-31T21:32:16.870Z,2.10
2018-08-31T21:34:43.247Z,1.80
2018-08-31T21:37:09.704Z,2.50
2018-08-31T21:39:36.135Z,1.80
2018-08-31T21:42:02.630Z,2.50
2018-08-31T21:44:29.041Z,2.13
2018-08-31T21:46:55.436Z,2.20
2018-08-31T21:49:21.934Z,1.80
2018-08-31T21:51:48.356Z,2.00
2018-08-31T21:54:14.861Z,2.40
2018-08-31T21:56:41.290Z,2.10
2018-08-31T21:59:08.725Z,2.30
2018-08-31T22:01:39.275Z,1.83
2018-08-31T22:04:05.645Z,2.00
2018-08-31T22:06:32.071Z,2.43
2018-08-31T22:08:58.579Z,2.03
2018-08-31T22:11:25.015Z,2.33
2018-08-31T22:13:51.513Z,1.90
2018-08-31T22:16:18.182Z,2.20
2018-08-31T22:18:44.573Z,1.90
2018-08-31T22:21:10.918Z,1.97
2018-08-31T22:23:37.292Z,2.00
2018-08-31T22:26:03.699Z,2.23
2018-08-31T22:28:30.063Z,1.90
2018-08-31T22:30:56.584Z,2.03
2018-08-31T22:33:23.045Z,2.03
2018-08-31T22:35:49.540Z,1.73
2018-08-31T22:38:15.907Z,1.73
2018-08-31T22:40:42.319Z,2.10
2018-08-31T22:43:08.711Z,1.97
2018-08-31T22:45:35.138Z,2.30
2018-08-31T22:48:01.512Z,2.27
2018-08-31T22:50:27.929Z,2.33
2018-08-31T22:52:54.367Z,2.20
2018-08-31T22:55:20.856Z,2.00
2018-08-31T22:57:47.939Z,1.73
2018-08-31T23:00:14.430Z,2.10
2018-08-31T23:02:40.863Z,1.90
2018-08-31T23:05:07.324Z,1.80
2018-08-31T23:07:39.527Z,1.93
2018-08-31T23:10:06.331Z,1.83
2018-08-31T23:12:32.798Z,2.00
2018-08-31T23:14:59.391Z,2.10
2018-08-31T23:17:26.862Z,2.10
2018-08-31T23:19:53.407Z,2.10
2018-08-31T23:22:19.867Z,1.73
2018-08-31T23:24:46.380Z,1.80
2018-08-31T23:27:12.874Z,2.07
2018-08-31T23:29:39.366Z,1.83
2018-08-31T23:32:05.877Z,2.10
2018-08-31T23:34:32.393Z,1.60
2018-08-31T23:36:58.882Z,1.90
2018-08-31T23:39:25.360Z,2.30
2018-08-31T23:41:52.000Z,1.80
2018-08-31T23:44:18.462Z,1.80
2018-08-31T23:46:44.963Z,2.07
2018-08-31T23:49:11.422Z,1.73
2018-08-31T23:51:37.881Z,1.90
2018-08-31T23:54:04.431Z,1.90
2018-08-31T23:56:30.875Z,2.17
2018-08-31T23:58:57.343Z,2.37
